createdAt,value
2018-07-19T00:01:03.089Z,16.40
2018-07-19T00:03:31.153Z,16.39
2018-07-19T00:05:59.204Z,16.37
2018-07-19T00:08:27.295Z,16.39
2018-07-19T00:10:55.363Z,16.27
2018-07-19T00:13:23.531Z,16.16
2018-07-19T00:15:51.924Z,16.07
2018-07-19T00:18:24.456Z,16.02
2018-07-19T00:20:52.989Z,16.02
2018-07-19T00:23:21.247Z,16.04
2018-07-19T00:25:49.320Z,16.07
2018-07-19T00:28:17.392Z,15.98
2018-07-19T00:30:45.359Z,15.88
2018-07-19T00:33:13.343Z,15.93
2018-07-19T00:35:41.400Z,15.91
2018-07-19T00:38:09.368Z,15.81
2018-07-19T00:40:37.529Z,15.75
2018-07-19T00:43:05.484Z,15.74
2018-07-19T00:45:33.484Z,15.74
2018-07-19T00:48:01.668Z,15.68
2018-07-19T00:50:29.940Z,15.59
2018-07-19T00:52:57.928Z,15.47
2018-07-19T00:55:25.863Z,15.43
2018-07-19T00:57:54.040Z,15.44
2018-07-19T01:00:22.109Z,15.49
2018-07-19T01:02:50.185Z,15.50
2018-07-19T01:05:18.151Z,15.55
2018-07-19T01:07:46.324Z,15.60
2018-07-19T01:10:14.397Z,15.62
2018-07-19T01:12:42.488Z,15.46
2018-07-19T01:15:10.531Z,15.45
2018-07-19T01:17:38.503Z,15.38
2018-07-19T01:20:06.580Z,15.28
2018-07-19T01:22:34.627Z,15.23
2018-07-19T01:25:02.849Z,15.21
2018-07-19T01:27:30.971Z,15.17
2018-07-19T01:29:58.940Z,15.12
2018-07-19T01:32:26.900Z,15.14
2018-07-19T01:34:55.103Z,15.16
2018-07-19T01:37:23.176Z,15.15
2018-07-19T01:39:51.128Z,15.11
2018-07-19T01:42:34.395Z,15.09
2018-07-19T01:45:02.559Z,15.04
2018-07-19T01:47:30.593Z,15.00
2018-07-19T01:49:58.695Z,14.95
2018-07-19T01:52:26.658Z,14.89
2018-07-19T01:54:54.738Z,14.86
2018-07-19T01:57:22.812Z,14.86
2018-07-19T01:59:51.131Z,14.88
2018-07-19T02:02:19.764Z,14.88
2018-07-19T02:04:47.709Z,14.89
2018-07-19T02:07:15.926Z,14.84
2018-07-19T02:09:44.164Z,14.84
2018-07-19T02:12:12.148Z,14.85
2018-07-19T02:14:40.533Z,14.83
2018-07-19T02:17:08.481Z,14.78
2018-07-19T02:19:36.476Z,14.72
2018-07-19T02:22:04.718Z,14.63
2018-07-19T02:24:32.829Z,14.56
2018-07-19T02:27:01.046Z,14.50
2018-07-19T02:29:29.160Z,14.45
2018-07-19T02:31:57.244Z,14.48
2018-07-19T02:34:25.410Z,14.52
2018-07-19T02:36:53.484Z,14.50
2018-07-19T02:39:21.476Z,14.45
2018-07-19T02:41:49.626Z,14.41
2018-07-19T02:44:17.692Z,14.36
2018-07-19T02:46:45.872Z,14.33
2018-07-19T02:49:14.056Z,14.34
2018-07-19T02:51:43.136Z,14.33
2018-07-19T02:54:11.620Z,14.32
2018-07-19T02:56:39.768Z,14.23
2018-07-19T02:59:07.764Z,14.15
2018-07-19T03:01:36.140Z,14.14
2018-07-19T03:04:04.326Z,14.07
2018-07-19T03:06:32.406Z,14.06
2018-07-19T03:09:00.578Z,14.04
2018-07-19T03:11:28.723Z,14.02
2018-07-19T03:13:56.677Z,14.03
2018-07-19T03:16:24.778Z,14.03
2018-07-19T03:18:52.844Z,14.04
2018-07-19T03:21:20.912Z,14.05
2018-07-19T03:23:48.988Z,13.99
2018-07-19T03:26:17.032Z,13.89
2018-07-19T03:28:45.024Z,13.85
2018-07-19T03:31:13.025Z,13.86
2018-07-19T03:33:41.300Z,13.84
2018-07-19T03:36:09.437Z,13.87
2018-07-19T03:38:37.426Z,13.82
2018-07-19T03:41:05.835Z,13.82
2018-07-19T03:43:34.016Z,13.89
2018-07-19T03:46:02.132Z,13.88
2018-07-19T03:48:30.111Z,13.91
2018-07-19T03:50:58.178Z,13.98
2018-07-19T03:53:26.146Z,13.95
2018-07-19T03:55:57.045Z,13.95
2018-07-19T03:58:25.048Z,13.88
2018-07-19T04:00:53.043Z,13.81
2018-07-19T04:03:21.188Z,13.84
2018-07-19T04:05:49.162Z,13.81
2018-07-19T04:08:17.128Z,13.79
2018-07-19T04:10:45.097Z,13.83
2018-07-19T04:13:13.248Z,13.91
2018-07-19T04:15:41.249Z,13.99
2018-07-19T04:18:09.514Z,14.02
2018-07-19T04:20:37.585Z,14.04
2018-07-19T04:23:05.764Z,14.12
2018-07-19T04:25:34.060Z,14.16
2018-07-19T04:28:02.110Z,14.21
2018-07-19T04:30:30.256Z,14.28
2018-07-19T04:32:58.256Z,14.37
2018-07-19T04:35:26.432Z,14.40
2018-07-19T04:37:54.600Z,14.41
2018-07-19T04:40:22.545Z,14.48
2018-07-19T04:42:50.892Z,14.56
2018-07-19T04:45:19.008Z,14.60
2018-07-19T04:47:47.109Z,14.60
2018-07-19T04:50:15.159Z,14.66
2018-07-19T04:52:43.131Z,14.70
2018-07-19T04:55:11.277Z,14.74
2018-07-19T04:57:39.372Z,14.82
2018-07-19T05:00:07.643Z,14.84
2018-07-19T05:02:35.588Z,14.87
2018-07-19T05:05:04.103Z,14.79
2018-07-19T05:07:32.164Z,14.80
2018-07-19T05:10:00.136Z,14.71
2018-07-19T05:12:28.204Z,14.73
2018-07-19T05:14:56.169Z,14.83
2018-07-19T05:17:24.348Z,14.88
2018-07-19T05:19:52.428Z,14.97
2018-07-19T05:22:20.387Z,15.09
2018-07-19T05:24:48.563Z,15.24
2018-07-19T05:27:16.484Z,15.29
2018-07-19T05:29:44.499Z,15.38
2018-07-19T05:32:12.876Z,15.47
2018-07-19T05:34:41.022Z,15.56
2018-07-19T05:37:08.966Z,15.77
2018-07-19T05:39:36.887Z,16.09
2018-07-19T05:42:04.966Z,16.37
2018-07-19T05:44:33.056Z,16.59
2018-07-19T05:47:01.108Z,16.80
2018-07-19T05:49:29.048Z,16.95
2018-07-19T05:51:57.025Z,17.10
2018-07-19T05:54:25.007Z,17.18
2018-07-19T05:56:52.984Z,17.30
2018-07-19T05:59:20.951Z,17.44
2018-07-19T06:01:49.015Z,17.55
2018-07-19T06:04:16.991Z,17.68
2018-07-19T06:06:45.068Z,17.74
2018-07-19T06:09:13.176Z,17.85
2018-07-19T06:11:41.184Z,17.91
2018-07-19T06:14:09.172Z,17.96
2018-07-19T06:16:37.063Z,18.13
2018-07-19T06:19:05.412Z,18.25
2018-07-19T06:21:33.401Z,18.38
2018-07-19T06:24:01.569Z,18.47
2018-07-19T06:26:29.624Z,18.58
2018-07-19T06:28:57.572Z,18.76
2018-07-19T06:31:25.674Z,18.84
2018-07-19T06:33:53.736Z,18.88
2018-07-19T06:36:21.720Z,18.99
2018-07-19T06:38:49.672Z,19.07
2018-07-19T06:41:17.735Z,19.13
2018-07-19T06:43:45.616Z,19.15
2018-07-19T06:46:13.687Z,19.28
2018-07-19T06:48:41.768Z,19.35
2018-07-19T06:51:10.031Z,19.41
2018-07-19T06:53:38.125Z,19.45
2018-07-19T06:56:06.067Z,19.59
2018-07-19T06:58:34.096Z,19.73
2018-07-19T07:01:02.104Z,19.82
2018-07-19T07:03:30.231Z,20.00
2018-07-19T07:05:58.740Z,20.08
2018-07-19T07:08:26.691Z,20.17
2018-07-19T07:10:54.801Z,20.24
2018-07-19T07:13:22.876Z,20.36
2018-07-19T07:15:50.948Z,20.47
2018-07-19T07:18:18.987Z,20.62
2018-07-19T07:20:48.032Z,20.82
2018-07-19T07:23:16.308Z,21.00
2018-07-19T07:25:49.601Z,21.10
2018-07-19T07:28:18.532Z,21.41
2018-07-19T07:30:46.540Z,21.81
2018-07-19T07:33:15.229Z,22.47
2018-07-19T07:35:43.603Z,24.52
2018-07-19T07:38:11.575Z,26.54
2018-07-19T07:40:39.652Z,27.91
2018-07-19T07:43:08.336Z,28.23
2018-07-19T07:45:36.308Z,28.77
2018-07-19T07:48:04.448Z,29.70
2018-07-19T07:50:32.856Z,29.67
2018-07-19T07:53:00.795Z,30.05
2018-07-19T07:55:28.789Z,30.35
2018-07-19T07:57:56.836Z,30.18
2018-07-19T08:00:24.962Z,31.00
2018-07-19T08:02:53.125Z,31.19
2018-07-19T08:05:21.587Z,30.24
2018-07-19T08:07:49.655Z,30.79
2018-07-19T08:10:17.736Z,30.64
2018-07-19T08:12:45.708Z,30.62
2018-07-19T08:15:13.669Z,30.88
2018-07-19T08:17:41.843Z,30.26
2018-07-19T08:20:09.808Z,30.25
2018-07-19T08:22:37.775Z,29.73
2018-07-19T08:25:05.639Z,29.73
2018-07-19T08:27:33.713Z,30.21
2018-07-19T08:30:01.696Z,30.34
2018-07-19T08:32:29.965Z,30.24
2018-07-19T08:34:57.931Z,30.22
2018-07-19T08:37:25.896Z,30.88
2018-07-19T08:39:53.863Z,30.46
2018-07-19T08:42:21.831Z,31.20
2018-07-19T08:44:49.907Z,31.73
2018-07-19T08:47:17.880Z,31.66
2018-07-19T08:49:46.904Z,31.29
2018-07-19T08:52:15.263Z,31.73
2018-07-19T08:54:43.527Z,31.61
2018-07-19T08:57:11.595Z,31.37
2018-07-19T08:59:39.701Z,31.95
2018-07-19T09:02:07.821Z,31.60
2018-07-19T09:04:35.812Z,31.48
2018-07-19T09:07:04.099Z,31.30
2018-07-19T09:09:32.180Z,31.14
2018-07-19T09:12:00.219Z,30.59
2018-07-19T09:14:28.174Z,30.62
2018-07-19T09:16:56.376Z,30.30
2018-07-19T09:19:24.310Z,29.97
2018-07-19T09:21:52.404Z,29.25
2018-07-19T09:24:20.363Z,28.70
2018-07-19T09:26:48.453Z,27.49
2018-07-19T09:29:16.416Z,27.04
2018-07-19T09:31:44.497Z,26.25
2018-07-19T09:34:12.560Z,26.46
2018-07-19T09:36:40.496Z,27.13
2018-07-19T09:39:10.742Z,27.56
2018-07-19T09:41:38.845Z,27.82
2018-07-19T09:44:07.025Z,27.65
2018-07-19T09:46:34.945Z,27.80
2018-07-19T09:49:03.138Z,27.83
2018-07-19T09:51:31.052Z,28.00
2018-07-19T09:53:59.507Z,28.05
2018-07-19T09:56:27.764Z,28.17
2018-07-19T09:58:55.832Z,28.03
2018-07-19T10:01:23.808Z,27.99
2018-07-19T10:03:52.190Z,28.00
2018-07-19T10:06:20.676Z,28.04
2018-07-19T10:08:48.627Z,27.87
2018-07-19T10:11:16.593Z,27.51
2018-07-19T10:13:45.046Z,27.10
2018-07-19T10:16:12.917Z,27.10
2018-07-19T10:18:40.912Z,27.71
2018-07-19T10:21:08.876Z,27.83
2018-07-19T10:23:36.880Z,27.56
2018-07-19T10:26:05.020Z,27.86
2018-07-19T10:28:33.121Z,28.15
2018-07-19T10:31:01.160Z,28.39
2018-07-19T10:33:29.127Z,28.61
2018-07-19T10:35:57.072Z,28.74
2018-07-19T10:38:25.104Z,28.85
2018-07-19T10:40:53.116Z,28.79
2018-07-19T10:43:21.209Z,28.58
2018-07-19T10:45:49.256Z,28.44
2018-07-19T10:48:17.252Z,28.46
2018-07-19T10:50:45.320Z,28.24
2018-07-19T10:53:13.289Z,27.64
2018-07-19T10:55:41.260Z,27.82
2018-07-19T10:58:09.223Z,28.03
2018-07-19T11:00:37.192Z,27.64
2018-07-19T11:03:05.585Z,26.97
2018-07-19T11:05:33.520Z,26.99
2018-07-19T11:08:01.632Z,26.65
2018-07-19T11:10:29.788Z,26.27
2018-07-19T11:12:57.757Z,26.08
2018-07-19T11:15:25.732Z,26.64
2018-07-19T11:17:53.804Z,26.74
2018-07-19T11:20:21.976Z,27.34
2018-07-19T11:22:49.952Z,27.56
2018-07-19T11:25:17.884Z,28.08
2018-07-19T11:27:45.876Z,28.45
2018-07-19T11:30:13.930Z,28.59
2018-07-19T11:32:41.925Z,28.70
2018-07-19T11:35:09.890Z,28.50
2018-07-19T11:37:37.933Z,28.37
2018-07-19T11:40:05.930Z,28.30
2018-07-19T11:42:33.893Z,28.46
2018-07-19T11:45:01.866Z,28.57
2018-07-19T11:47:29.936Z,28.45
2018-07-19T11:49:57.950Z,28.48
2018-07-19T11:52:25.877Z,28.47
2018-07-19T11:54:54.065Z,28.37
2018-07-19T11:57:22.236Z,28.34
2018-07-19T11:59:50.194Z,28.39
2018-07-19T12:02:18.264Z,28.30
2018-07-19T12:04:46.235Z,28.54
2018-07-19T12:07:14.201Z,28.55
2018-07-19T12:09:42.175Z,28.25
2018-07-19T12:12:10.320Z,28.31
2018-07-19T12:14:38.393Z,28.39
2018-07-19T12:17:06.384Z,28.29
2018-07-19T12:19:34.432Z,28.41
2018-07-19T12:22:02.501Z,28.49
2018-07-19T12:24:30.796Z,28.39
2018-07-19T12:26:58.749Z,28.27
2018-07-19T12:29:26.741Z,28.38
2018-07-19T12:31:54.755Z,28.57
2018-07-19T12:34:22.773Z,28.80
2018-07-19T12:36:50.780Z,29.06
2018-07-19T12:39:18.816Z,29.05
2018-07-19T12:41:47.121Z,28.75
2018-07-19T12:44:15.167Z,28.70
2018-07-19T12:46:43.136Z,28.72
2018-07-19T12:49:11.109Z,28.40
2018-07-19T12:51:39.076Z,28.11
2018-07-19T12:54:07.248Z,28.07
2018-07-19T12:56:35.213Z,28.32
2018-07-19T12:59:03.292Z,28.45
2018-07-19T13:01:31.478Z,28.50
2018-07-19T13:03:59.540Z,28.45
2018-07-19T13:06:27.496Z,28.45
2018-07-19T13:08:55.476Z,28.45
2018-07-19T13:11:23.408Z,28.43
2018-07-19T13:13:51.513Z,28.44
2018-07-19T13:16:19.480Z,28.45
2018-07-19T13:18:47.429Z,28.62
2018-07-19T13:21:15.616Z,28.74
2018-07-19T13:23:43.596Z,28.82
2018-07-19T13:26:11.553Z,28.63
2018-07-19T13:28:39.632Z,28.72
2018-07-19T13:31:07.677Z,28.84
2018-07-19T13:33:35.681Z,28.91
2018-07-19T13:36:03.642Z,28.96
2018-07-19T13:38:31.684Z,29.35
2018-07-19T13:40:59.668Z,29.57
2018-07-19T13:43:27.641Z,29.56
2018-07-19T13:45:55.612Z,29.65
2018-07-19T13:48:23.688Z,29.70
2018-07-19T13:50:51.651Z,29.11
2018-07-19T13:53:32.872Z,29.09
2018-07-19T13:56:01.011Z,29.12
2018-07-19T13:58:28.973Z,29.09
2018-07-19T14:00:56.976Z,29.33
2018-07-19T14:03:25.120Z,29.61
2018-07-19T14:05:53.085Z,29.81
2018-07-19T14:08:21.159Z,29.87
2018-07-19T14:10:49.125Z,29.83
2018-07-19T14:13:17.353Z,29.78
2018-07-19T14:15:45.468Z,29.82
2018-07-19T14:18:13.848Z,29.95
2018-07-19T14:20:41.928Z,29.93
2018-07-19T14:23:09.889Z,30.10
2018-07-19T14:25:38.121Z,30.17
2018-07-19T14:28:06.218Z,30.22
2018-07-19T14:30:34.316Z,30.22
2018-07-19T14:33:02.281Z,30.14
2018-07-19T14:35:30.253Z,30.30
2018-07-19T14:37:58.212Z,30.43
2018-07-19T14:40:26.301Z,30.45
2018-07-19T14:42:54.325Z,30.30
2018-07-19T14:45:22.429Z,30.17
2018-07-19T14:47:50.397Z,30.07
2018-07-19T14:50:18.464Z,30.00
2018-07-19T14:52:46.436Z,30.08
2018-07-19T14:55:14.408Z,30.19
2018-07-19T14:57:42.372Z,30.27
2018-07-19T15:00:10.532Z,30.24
2018-07-19T15:02:38.525Z,29.97
2018-07-19T15:05:06.588Z,30.06
2018-07-19T15:07:34.664Z,30.02
2018-07-19T15:10:02.726Z,30.02
2018-07-19T15:12:30.677Z,30.23
2018-07-19T15:14:58.753Z,29.81
2018-07-19T15:17:26.744Z,29.26
2018-07-19T15:19:54.704Z,29.21
2018-07-19T15:22:22.897Z,28.95
2018-07-19T15:24:50.976Z,28.87
2018-07-19T15:27:19.023Z,28.40
2018-07-19T15:29:47.085Z,28.08
2018-07-19T15:32:15.065Z,28.19
2018-07-19T15:34:43.028Z,28.66
2018-07-19T15:37:11.096Z,29.09
2018-07-19T15:39:39.095Z,29.29
2018-07-19T15:42:07.353Z,29.55
2018-07-19T15:44:35.416Z,29.78
2018-07-19T15:47:03.394Z,29.77
2018-07-19T15:49:31.432Z,29.91
2018-07-19T15:51:59.440Z,29.76
2018-07-19T15:54:27.395Z,29.82
2018-07-19T15:56:55.468Z,29.86
2018-07-19T15:59:23.444Z,29.80
2018-07-19T16:01:51.505Z,29.89
2018-07-19T16:04:19.578Z,29.89
2018-07-19T16:06:47.557Z,29.77
2018-07-19T16:09:15.524Z,29.69
2018-07-19T16:11:43.465Z,29.64
2018-07-19T16:14:11.460Z,29.65
2018-07-19T16:16:39.532Z,29.59
2018-07-19T16:19:07.484Z,29.46
2018-07-19T16:21:35.459Z,29.48
2018-07-19T16:24:03.509Z,29.68
2018-07-19T16:26:31.604Z,29.91
2018-07-19T16:28:59.572Z,29.90
2018-07-19T16:31:28.694Z,29.85
2018-07-19T16:33:57.152Z,29.82
2018-07-19T16:36:25.397Z,29.87
2018-07-19T16:38:53.596Z,29.58
2018-07-19T16:41:21.762Z,29.43
2018-07-19T16:43:49.952Z,29.47
2018-07-19T16:46:18.178Z,29.43
2018-07-19T16:48:46.295Z,29.37
2018-07-19T16:51:14.456Z,29.18
2018-07-19T16:53:42.461Z,29.01
2018-07-19T16:56:10.490Z,28.83
2018-07-19T16:58:38.646Z,28.69
2018-07-19T17:01:06.878Z,28.62
2018-07-19T17:03:35.046Z,28.72
2018-07-19T17:06:03.408Z,28.74
2018-07-19T17:08:31.514Z,28.61
2018-07-19T17:10:59.544Z,28.53
2018-07-19T17:13:27.536Z,28.49
2018-07-19T17:15:55.572Z,28.40
2018-07-19T17:18:23.561Z,28.23
2018-07-19T17:20:51.529Z,28.22
2018-07-19T17:23:19.655Z,28.26
2018-07-19T17:25:48.009Z,28.11
2018-07-19T17:28:16.239Z,28.03
2018-07-19T17:30:45.261Z,27.95
2018-07-19T17:33:13.536Z,27.89
2018-07-19T17:35:44.311Z,27.88
2018-07-19T17:38:12.724Z,27.82
2018-07-19T17:40:40.704Z,27.69
2018-07-19T17:43:08.777Z,27.67
2018-07-19T17:45:36.855Z,27.59
2018-07-19T17:48:05.021Z,27.56
2018-07-19T17:50:33.073Z,27.40
2018-07-19T17:53:01.060Z,27.35
2018-07-19T17:55:29.106Z,27.37
2018-07-19T17:57:57.300Z,27.34
2018-07-19T18:00:25.252Z,27.28
2018-07-19T18:02:53.254Z,27.28
2018-07-19T18:05:21.316Z,27.16
2018-07-19T18:07:49.292Z,27.05
2018-07-19T18:10:17.252Z,27.02
2018-07-19T18:12:45.429Z,26.97
2018-07-19T18:15:13.401Z,26.81
2018-07-19T18:17:41.382Z,26.76
2018-07-19T18:20:09.521Z,26.62
2018-07-19T18:22:37.608Z,26.46
2018-07-19T18:25:06.373Z,26.28
2018-07-19T18:27:34.569Z,26.26
2018-07-19T18:30:02.856Z,26.07
2018-07-19T18:32:30.813Z,26.00
2018-07-19T18:34:58.813Z,25.75
2018-07-19T18:37:26.853Z,25.53
2018-07-19T18:39:54.827Z,25.44
2018-07-19T18:42:22.788Z,25.27
2018-07-19T18:44:50.756Z,25.22
2018-07-19T18:47:18.829Z,25.09
2018-07-19T18:49:46.907Z,24.86
2018-07-19T18:52:14.995Z,24.76
2018-07-19T18:54:43.150Z,24.53
2018-07-19T18:57:11.124Z,24.39
2018-07-19T18:59:39.076Z,24.45
2018-07-19T19:02:07.236Z,24.45
2018-07-19T19:04:35.236Z,24.42
2018-07-19T19:07:03.401Z,24.45
2018-07-19T19:09:31.351Z,24.55
2018-07-19T19:11:59.440Z,24.49
2018-07-19T19:14:27.412Z,24.35
2018-07-19T19:16:55.780Z,24.21
2018-07-19T19:19:23.885Z,23.93
2018-07-19T19:21:52.225Z,23.61
2018-07-19T19:24:20.343Z,23.52
2018-07-19T19:26:48.291Z,23.46
2018-07-19T19:29:16.261Z,23.10
2018-07-19T19:31:44.326Z,23.08
2018-07-19T19:34:12.304Z,23.08
2018-07-19T19:36:40.477Z,22.78
2018-07-19T19:39:10.896Z,22.56
2018-07-19T19:41:38.972Z,22.40
2018-07-19T19:44:06.965Z,22.41
2018-07-19T19:46:35.120Z,22.52
2018-07-19T19:49:03.292Z,22.59
2018-07-19T19:51:31.369Z,22.47
2018-07-19T19:53:59.748Z,22.25
2018-07-19T19:56:27.809Z,22.08
2018-07-19T19:58:55.780Z,22.00
2018-07-19T20:01:24.178Z,21.93
2018-07-19T20:03:52.338Z,21.83
2018-07-19T20:06:20.317Z,21.74
2018-07-19T20:08:48.383Z,21.72
2018-07-19T20:11:16.565Z,21.59
2018-07-19T20:13:44.829Z,21.58
2018-07-19T20:16:12.803Z,21.58
2018-07-19T20:18:40.871Z,21.57
2018-07-19T20:21:08.921Z,21.53
2018-07-19T20:23:37.221Z,21.53
2018-07-19T20:26:05.297Z,21.47
2018-07-19T20:28:33.368Z,21.37
2018-07-19T20:31:01.444Z,21.16
2018-07-19T20:33:29.617Z,21.04
2018-07-19T20:35:57.578Z,21.00
2018-07-19T20:38:25.544Z,20.97
2018-07-19T20:40:53.828Z,20.83
2018-07-19T20:43:21.813Z,20.75
2018-07-19T20:45:49.965Z,20.71
2018-07-19T20:48:17.944Z,20.60
2018-07-19T20:50:46.117Z,20.45
2018-07-19T20:53:14.090Z,20.38
2018-07-19T20:55:42.160Z,20.46
2018-07-19T20:58:10.125Z,20.40
2018-07-19T21:00:38.414Z,20.42
2018-07-19T21:03:06.478Z,20.39
2018-07-19T21:05:34.649Z,20.41
2018-07-19T21:08:02.804Z,20.30
2018-07-19T21:10:30.862Z,20.31
2018-07-19T21:12:58.920Z,20.30
2018-07-19T21:15:26.934Z,20.17
2018-07-19T21:17:54.913Z,20.02
2018-07-19T21:20:23.068Z,19.92
2018-07-19T21:22:51.051Z,19.87
2018-07-19T21:25:19.213Z,19.79
2018-07-19T21:27:47.180Z,19.70
2018-07-19T21:30:15.161Z,19.64
2018-07-19T21:32:43.192Z,19.64
2018-07-19T21:35:11.289Z,19.62
2018-07-19T21:37:39.278Z,19.67
2018-07-19T21:40:07.456Z,19.61
2018-07-19T21:42:35.520Z,19.64
2018-07-19T21:45:04.221Z,19.68
2018-07-19T21:47:32.273Z,19.59
2018-07-19T21:50:00.242Z,19.54
2018-07-19T21:52:28.406Z,19.46
2018-07-19T21:54:56.385Z,19.40
2018-07-19T21:57:24.443Z,19.33
2018-07-19T21:59:52.624Z,19.31
2018-07-19T22:02:20.821Z,19.28
2018-07-19T22:04:48.871Z,19.08
2018-07-19T22:07:16.945Z,19.12
2018-07-19T22:09:45.110Z,19.07
2018-07-19T22:12:13.152Z,19.14
2018-07-19T22:14:41.269Z,19.25
2018-07-19T22:17:09.320Z,19.21
2018-07-19T22:19:37.384Z,19.07
2018-07-19T22:22:05.377Z,18.99
2018-07-19T22:24:33.417Z,18.96
2018-07-19T22:27:01.413Z,18.90
2018-07-19T22:29:29.458Z,18.84
2018-07-19T22:31:57.449Z,18.80
2018-07-19T22:34:25.440Z,18.74
2018-07-19T22:36:53.368Z,18.82
2018-07-19T22:39:21.352Z,18.68
2018-07-19T22:41:49.324Z,18.55
2018-07-19T22:44:17.482Z,18.52
2018-07-19T22:46:45.468Z,18.48
2018-07-19T22:49:13.421Z,18.43
2018-07-19T22:51:41.413Z,18.38
2018-07-19T22:54:09.368Z,18.33
2018-07-19T22:56:37.344Z,18.30
2018-07-19T22:59:05.415Z,18.24
2018-07-19T23:01:33.454Z,18.22
2018-07-19T23:04:01.437Z,18.25
2018-07-19T23:06:29.420Z,18.19
2018-07-19T23:08:57.359Z,18.20
2018-07-19T23:11:25.360Z,18.09
2018-07-19T23:13:53.321Z,18.21
2018-07-19T23:16:21.297Z,18.26
2018-07-19T23:18:49.268Z,18.32
2018-07-19T23:21:17.337Z,18.37
2018-07-19T23:23:45.401Z,18.30
2018-07-19T23:26:13.376Z,18.18
2018-07-19T23:28:41.433Z,18.09
2018-07-19T23:31:09.592Z,18.04
2018-07-19T23:33:37.669Z,18.03
2018-07-19T23:36:08.684Z,18.14
2018-07-19T23:38:42.256Z,18.29
2018-07-19T23:41:14.989Z,18.34
2018-07-19T23:43:45.716Z,18.42
2018-07-19T23:46:17.784Z,18.50
2018-07-19T23:48:46.140Z,18.52
2018-07-19T23:51:14.162Z,18.38
2018-07-19T23:53:42.237Z,18.27
2018-07-19T23:56:10.197Z,18.13
2018-07-19T23:58:38.169Z,18.01
